Details for WeGo Airways at EGGW




Go Back


Latest METAR
Local Time

EGGW 232350Z AUTO 09007KT 9999 BKN025 M00/M03 Q1019

24/02/2018, 00:08:39

Description
Results
WeGo Airways Logo
Number of Pilots based at EGGW
1 Pilots Based here
Number of WeGo Airways Flights Departed from EGGW
0 Flights Departed
Number of WeGo Airways Flights Arrived at EGGW
0 Flights Arrived
Number of WeGo Airways Schedules Departing from EGGW
0 Schedules
Number of WeGo Airways Schedules Arriving at EGGW
0 Schedules
Number of WeGo Airways Schedules Departing from EGGW availible today
0 Schedules Today
Number of WeGo Airways Schedules Arriving at EGGW availible today
0 Schedules Today
Average Landing Rate at EGGW
-208 fpm
WeGo Airways Average Landing Rate at EGGW
0 fpm
Total Fuel Purchased at EGGW by WeGo Airways
0.00 kgs / 0.00 lbs

Pilots Based at EGGW


Pilot ID
Pilot Name
Pilot Rank
No. of Flights
No. of Flying Hours
Jorgen Kambskard
104
309.27
Content